KC5TXI Weather Reports


Display with metric or nautical units.
time (UTC)temp
F
wind
direction
speed
MPH
gust
MPH
rain 1hr
in
rain 24hr
in
rain mn
in
humidity
%
barometer
mb
20220701053617 84 190 2.0 2.0 0.00 0.00 0.00 62 1012.3
20220701053115 85 215 3.0 3.0 0.00 0.00 0.00 61 1011.9
20220701052615 85 171 3.0 3.0 0.00 0.00 0.00 60 1012.1
20220701052113 85 174 2.0 2.0 0.00 0.00 0.00 60 1011.9
20220701051611 85 86 3.0 5.0 0.00 0.00 0.00 60 1012.1
20220701051112 86 26 3.0 6.0 0.00 0.00 0.00 59 1012.2
20220701050610 86 193 5.0 6.0 0.00 0.00 0.00 59 1012.2
20220701050109 86 155 2.0 3.0 0.00 0.00 0.00 59 1012.3
20220701045608 86 190 3.0 5.0 0.00 0.00 0.00 58 1012.3
20220701045106 86 169 4.0 5.0 0.00 0.00 0.00 58 1012.2
20220701044606 86 133 4.0 6.0 0.00 0.00 0.00 57 1012.0
20220701044105 87 141 3.0 5.0 0.00 0.00 0.00 57 1012.1
20220701043604 87 187 5.0 6.0 0.00 0.00 0.00 57 1012.0
20220701043104 87 163 2.0 3.0 0.00 0.00 0.00 56 1012.1
20220701042603 87 214 2.0 2.0 0.00 0.00 0.00 56 1012.0
20220701042102 87 171 2.0 2.0 0.00 0.00 0.00 56 1011.6
20220701041601 88 180 3.0 3.0 0.00 0.00 0.00 56 1012.0
20220701041101 88 169 2.0 2.0 0.00 0.00 0.00 55 1011.9
20220701040559 88 246 2.0 3.0 0.00 0.00 0.00 55 1011.7
20220701040058 88 204 3.0 3.0 0.00 0.00 0.00 55 1011.9
20220701035557 88 178 1.0 1.0 0.00 0.00 0.00 55 1011.4
20220701035058 88 210 4.0 6.0 0.00 0.00 0.00 54 1011.3
20220701034556 88 206 1.0 2.0 0.00 0.00 0.00 54 1011.2
20220701034055 89 164 2.0 2.0 0.00 0.00 0.00 54 1011.4
20220701033555 89 177 3.0 3.0 0.00 0.00 0.00 53 1011.2
20220701033053 89 197 1.0 1.0 0.00 0.00 0.00 52 1011.2
20220701032553 89 146 1.0 2.0 0.00 0.00 0.00 52 1011.0
20220701032051 89 175 2.0 2.0 0.00 0.00 0.00 52 1011.2
20220701031550 90 91 2.0 3.0 0.00 0.00 0.00 50 1010.9
20220701031049 90 188 0.0 1.0 0.00 0.00 0.00 48 1010.7
20220701030548 90 145 3.0 3.0 0.00 0.00 0.00 47 1010.6
20220701030047 90 184 2.0 2.0 0.00 0.00 0.00 46 1010.5
20220701025546 90 209 1.0 1.0 0.00 0.00 0.00 46 1010.6
20220701025044 91 244 2.0 2.0 0.00 0.00 0.00 44 1010.4
20220701024544 91 186 2.0 2.0 0.00 0.00 0.00 44 1010.6
20220701024044 91 177 1.0 2.0 0.00 0.00 0.00 44 1010.7
20220701023543 91 193 1.0 1.0 0.00 0.00 0.00 43 1010.4
20220701023041 91 190 1.0 2.0 0.00 0.00 0.00 43 1010.3
20220701022540 92 180 1.0 1.0 0.00 0.00 0.00 43 1010.3
20220701022039 92 90 1.0 2.0 0.00 0.00 0.00 42 1010.3
20220701021539 92 121 2.0 2.0 0.00 0.00 0.00 42 1010.2
20220701021038 92 214 0.0 0.0 0.00 0.00 0.00 42 1010.1
20220701020538 92 197 1.0 1.0 0.00 0.00 0.00 41 1010.1
20220701020038 92 190 1.0 1.0 0.00 0.00 0.00 41 1010.2
20220701015538 93 199 2.0 3.0 0.00 0.00 0.00 41 1010.1
20220701015036 93 197 2.0 2.0 0.00 0.00 0.00 41 1010.2
20220701014536 93 126 2.0 3.0 0.00 0.00 0.00 39 1010.0
20220701014034 93 158 2.0 2.0 0.00 0.00 0.00 39 1010.0
20220701013534 93 186 4.0 6.0 0.00 0.00 0.00 38 1010.3
20220701013033 93 193 1.0 2.0 0.00 0.00 0.00 38 1009.9
20220701012532 94 173 0.0 1.0 0.00 0.00 0.00 38 1009.9
20220701012031 94 198 0.0 0.0 0.00 0.00 0.00 37 1010.1
20220701011530 94 171 1.0 2.0 0.00 0.00 0.00 37 1010.0
20220701011030 94 179 1.0 1.0 0.00 0.00 0.00 37 1009.8
20220701010529 94 188 3.0 3.0 0.00 0.00 0.00 37 1010.0
20220701010029 95 141 3.0 5.0 0.00 0.00 0.00 37 1009.8
20220701005528 95 141 2.0 3.0 0.00 0.00 0.00 37 1009.9
20220701005027 95 171 0.0 1.0 0.00 0.00 0.00 36 1009.8
20220701004526 95 171 1.0 2.0 0.00 0.00 0.00 36 1009.7
20220701004024 95 153 3.0 3.0 0.00 0.00 0.00 36 1009.4
20220701003524 95 182 1.0 1.0 0.00 0.00 0.00 36 1009.4
20220701003023 96 177 1.0 1.0 0.00 0.00 0.00 36 1009.8
20220701002523 96 196 1.0 2.0 0.00 0.00 0.00 35 1009.8
20220701002022 96 153 1.0 2.0 0.00 0.00 0.00 36 1009.8
20220701001520 96 186 1.0 2.0 0.00 0.00 0.00 35 1009.6
20220701001021 96 192 2.0 2.0 0.00 0.00 0.00 35 1009.8
20220701000519 97 134 1.0 1.0 0.00 0.00 0.00 35 1009.8
20220701000018 98 166 3.0 3.0 0.00 0.00 0.00 35 1009.6
20220630235516 97 213 0.0 1.0 0.00 0.00 0.00 33 1009.8
20220630235015 98 245 0.0 0.0 0.00 0.00 0.00 34 1009.8
20220630234514 98 206 1.0 2.0 0.00 0.00 0.00 33 1009.9
20220630234015 98 197 1.0 2.0 0.00 0.00 0.00 34 1009.9
20220630233514 99 179 4.0 6.0 0.00 0.00 0.00 33 1009.9
20220630233013 99 215 0.0 0.0 0.00 0.00 0.00 32 1009.7
20220630232512 98 189 2.0 3.0 0.00 0.00 0.00 33 1009.9
20220630232010 100 146 1.0 1.0 0.00 0.00 0.00 31 1010.0
20220630231508 99 206 0.0 0.0 0.00 0.00 0.00 33 1010.0
20220630231007 99 209 2.0 2.0 0.00 0.00 0.00 32 1010.0
20220630230507 99 243 1.0 2.0 0.00 0.00 0.00 33 1010.1
20220630230005 99 172 2.0 3.0 0.00 0.00 0.00 33 1010.1
20220630225504 98 186 0.0 0.0 0.00 0.00 0.00 33 1010.1
20220630225004 100 127 0.0 1.0 0.00 0.00 0.00 32 1010.0
20220630224504 100 219 0.0 0.0 0.00 0.00 0.00 32 1010.0
20220630224004 99 193 2.0 3.0 0.00 0.00 0.00 32 1010.1
20220630223502 98 156 0.0 1.0 0.00 0.00 0.00 34 1010.3
20220630223002 98 200 0.0 0.0 0.00 0.00 0.00 34 1010.4
20220630222501 100 210 2.0 2.0 0.00 0.00 0.00 32 1010.5
20220630222001 100 208 0.0 0.0 0.00 0.00 0.00 32 1010.1
20220630221500 100 167 1.0 2.0 0.00 0.00 0.00 32 1010.4
20220630221000 99 196 2.0 5.0 0.00 0.00 0.00 32 1010.7
20220630220500 99 207 1.0 2.0 0.00 0.00 0.00 33 1010.3
20220630215958 99 201 1.0 1.0 0.00 0.00 0.00 33 1010.4
20220630215457 99 117 3.0 3.0 0.00 0.00 0.00 33 1010.5
20220630214956 97 210 0.0 0.0 0.00 0.00 0.00 33 1010.7
20220630214455 98 180 0.0 1.0 0.00 0.00 0.00 34 1010.7
20220630213954 98 185 2.0 2.0 0.00 0.00 0.00 34 1010.8
20220630213454 99 234 3.0 3.0 0.00 0.00 0.00 33 1010.8
20220630212952 99 101 0.0 0.0 0.00 0.00 0.00 31 1010.8
20220630212451 99 164 2.0 3.0 0.00 0.00 0.00 32 1011.0
20220630211949 102 55 2.0 2.0 0.00 0.00 0.00 29 1011.0
20220630211448 101 230 1.0 2.0 0.00 0.00 0.00 30 1011.0
20220630210949 100 187 4.0 5.0 0.00 0.00 0.00 31 1011.2
20220630210449 101 202 1.0 1.0 0.00 0.00 0.00 31 1011.1
20220630205947 102 88 1.0 2.0 0.00 0.00 0.00 30 1011.1
20220630205447 102 89 1.0 1.0 0.00 0.00 0.00 30 1011.4
20220630204946 101 202 0.0 1.0 0.00 0.00 0.00 30 1011.3
20220630204445 100 270 0.0 1.0 0.00 0.00 0.00 32 1011.9
20220630203944 100 201 1.0 1.0 0.00 0.00 0.00 31 1011.4
20220630203444 98 241 1.0 1.0 0.00 0.00 0.00 34 1011.6
20220630202942 100 189 2.0 3.0 0.00 0.00 0.00 32 1011.6
20220630202441 100 253 1.0 2.0 0.00 0.00 0.00 31 1011.7
20220630201942 100 174 3.0 3.0 0.00 0.00 0.00 31 1011.6
20220630201440 100 212 0.0 0.0 0.00 0.00 0.00 32 1011.5
20220630200939 100 212 0.0 0.0 0.00 0.00 0.00 32 1011.7
20220630200439 100 100 1.0 1.0 0.00 0.00 0.00 33 1011.9
20220630195939 102 32 1.0 1.0 0.00 0.00 0.00 30 1012.1
20220630195438 101 172 1.0 1.0 0.00 0.00 0.00 31 1012.0
20220630194938 102 194 1.0 2.0 0.00 0.00 0.00 32 1012.0
20220630194437 102 265 0.0 0.0 0.00 0.00 0.00 30 1012.1
20220630193937 102 227 2.0 2.0 0.00 0.00 0.00 30 1012.2
20220630193435 0 0.0 0.0 0.00 0.00 0.00 1012.5
20220630192934 0 0.0 0.0 0.00 0.00 0.00 1012.2
20220630192435 100 221 2.0 5.0 0.00 0.00 0.00 32 1012.5
20220630191933 100 221 2.0 5.0 0.00 0.00 0.00 32 1012.6
20220630191433 99 206 1.0 1.0 0.00 0.00 0.00 33 1012.7
20220630190931 0 0.0 0.0 0.00 0.00 0.00 1012.5
20220630190431 98 55 1.0 1.0 0.00 0.00 0.00 32 1012.7
20220630185929 98 55 1.0 1.0 0.00 0.00 0.00 32 1012.6
20220630185429 97 229 0.0 1.0 0.00 0.00 0.00 32 1012.8
20220630184928 98 172 1.0 2.0 0.00 0.00 0.00 33 1013.0
20220630184427 99 197 2.0 2.0 0.00 0.00 0.00 31 1013.4
20220630183928 99 199 1.0 2.0 0.00 0.00 0.00 31 1013.3
20220630183427 99 186 3.0 3.0 0.00 0.00 0.00 32 1013.1
20220630182926 99 141 1.0 2.0 0.00 0.00 0.00 31 1013.2
20220630182425 99 141 1.0 2.0 0.00 0.00 0.00 31 1013.3
20220630181926 98 190 0.0 0.0 0.00 0.00 0.00 32 1013.2
20220630181425 98 247 1.0 1.0 0.00 0.00 0.00 35 1013.3
20220630180924 98 247 1.0 1.0 0.00 0.00 0.00 35 1013.2
20220630180423 98 260 2.0 2.0 0.00 0.00 0.00 34 1013.5
20220630175921 97 293 1.0 2.0 0.00 0.00 0.00 34 1013.6
20220630175420 97 202 2.0 2.0 0.00 0.00 0.00 34 1013.8
20220630174920 99 190 0.0 1.0 0.00 0.00 0.00 32 1013.7
20220630174420 97 84 1.0 2.0 0.00 0.00 0.00 34 1013.8
20220630173919 98 186 0.0 1.0 0.00 0.00 0.00 36 1013.7
20220630173418 96 259 0.0 1.0 0.00 0.00 0.00 36 1014.0
20220630172917 96 242 1.0 2.0 0.00 0.00 0.00 37 1013.8
20220630172416 95 119 0.0 0.0 0.00 0.00 0.00 39 1014.0
20220630171915 96 241 1.0 1.0 0.00 0.00 0.00 38 1014.1
20220630171414 96 112 1.0 2.0 0.00 0.00 0.00 38 1014.1
20220630170913 96 89 3.0 3.0 0.00 0.00 0.00 38 1014.3
20220630170412 96 209 2.0 2.0 0.00 0.00 0.00 38 1014.0
20220630165910 96 204 1.0 2.0 0.00 0.00 0.00 39 1014.2
20220630165410 97 260 1.0 1.0 0.00 0.00 0.00 38 1014.3
20220630164908 96 121 1.0 2.0 0.00 0.00 0.00 39 1014.3
20220630164408 96 272 1.0 2.0 0.00 0.00 0.00 39 1014.5
20220630163908 97 194 1.0 1.0 0.00 0.00 0.00 38 1014.3
20220630163407 96 195 0.0 0.0 0.00 0.00 0.00 39 1014.3
20220630162906 95 202 1.0 1.0 0.00 0.00 0.00 40 1014.6
20220630162405 95 196 1.0 1.0 0.00 0.00 0.00 41 1014.4
20220630161906 95 192 2.0 2.0 0.00 0.00 0.00 42 1014.4
20220630161405 92 23 0.0 0.0 0.00 0.00 0.00 46 1014.3
20220630160905 94 211 1.0 2.0 0.00 0.00 0.00 43 1014.5
20220630160404 93 170 2.0 2.0 0.00 0.00 0.00 45 1014.3
20220630155902 92 173 1.0 1.0 0.00 0.00 0.00 47 1014.4
20220630155401 93 181 2.0 2.0 0.00 0.00 0.00 46 1014.6
20220630154900 94 183 2.0 2.0 0.00 0.00 0.00 44 1014.8
20220630154359 93 198 0.0 1.0 0.00 0.00 0.00 44 1014.7
20220630153857 93 302 0.0 1.0 0.00 0.00 0.00 45 1014.8
20220630153356 92 224 2.0 2.0 0.00 0.00 0.00 47 1014.5
20220630152855 92 103 2.0 3.0 0.00 0.00 0.00 45 1014.8
20220630152353 92 172 1.0 1.0 0.00 0.00 0.00 46 1014.8
20220630151854 91 180 0.0 0.0 0.00 0.00 0.00 46 1015.1
20220630151352 91 211 1.0 1.0 0.00 0.00 0.00 47 1014.9
20220630150852 91 163 1.0 1.0 0.00 0.00 0.00 46 1015.0
20220630150351 91 214 0.0 0.0 0.00 0.00 0.00 48 1015.1
20220630145851 89 197 0.0 0.0 0.00 0.00 0.00 49 1015.0
20220630145350 89 153 1.0 1.0 0.00 0.00 0.00 49 1015.0
20220630144849 90 219 1.0 1.0 0.00 0.00 0.00 49 1015.0
20220630144348 90 176 0.0 0.0 0.00 0.00 0.00 49 1015.1
20220630143847 89 206 0.0 1.0 0.00 0.00 0.00 50 1015.1
20220630143346 88 211 0.0 0.0 0.00 0.00 0.00 50 1015.2
20220630142845 87 171 0.0 0.0 0.00 0.00 0.00 52 1015.1
20220630142344 87 172 1.0 2.0 0.00 0.00 0.00 53 1015.3
20220630141842 86 186 0.0 1.0 0.00 0.00 0.00 53 1015.2
20220630141342 86 56 1.0 2.0 0.00 0.00 0.00 53 1015.1
20220630140840 86 183 0.0 1.0 0.00 0.00 0.00 53 1015.3
20220630140339 84 174 1.0 2.0 0.00 0.00 0.00 55 1015.4
20220630135840 85 183 0.0 0.0 0.00 0.00 0.00 55 1015.3
20220630135340 83 195 0.0 0.0 0.00 0.00 0.00 55 1015.4
20220630134838 83 158 0.0 1.0 0.00 0.00 0.00 57 1015.3
20220630134337 82 145 1.0 2.0 0.00 0.00 0.00 57 1015.4
20220630133837 82 195 0.0 0.0 0.00 0.00 0.00 57 1015.4
20220630133335 82 143 1.0 1.0 0.00 0.00 0.00 58 1015.3
20220630132834 81 194 0.0 0.0 0.00 0.00 0.00 58 1015.5
20220630132333 80 173 1.0 1.0 0.00 0.00 0.00 60 1015.2
20220630131831 80 191 2.0 2.0 0.00 0.00 0.00 60 1015.4
20220630131332 80 191 1.0 1.0 0.00 0.00 0.00 61 1015.3
20220630130832 79 180 1.0 1.0 0.00 0.00 0.00 61 1015.3
20220630130331 78 142 1.0 1.0 0.00 0.00 0.00 62 1015.3
20220630125830 78 188 1.0 1.0 0.00 0.00 0.00 63 1015.4
20220630125329 77 177 0.0 1.0 0.00 0.00 0.00 64 1015.1
20220630124827 77 181 1.0 1.0 0.00 0.00 0.00 64 1015.3
20220630124326 77 184 0.0 0.0 0.00 0.00 0.00 65 1015.3
20220630123827 77 189 0.0 0.0 0.00 0.00 0.00 65 1015.1
20220630123326 77 190 0.0 0.0 0.00 0.00 0.00 64 1015.1
20220630122825 76 189 0.0 0.0 0.00 0.00 0.00 66 1015.2
20220630122325 75 189 0.0 0.0 0.00 0.00 0.00 68 1015.1
20220630121825 74 189 0.0 0.0 0.00 0.00 0.00 70 1015.2
20220630121325 73 190 0.0 0.0 0.00 0.00 0.00 70 1015.3
20220630120823 72 190 0.0 0.0 0.00 0.00 0.00 72 1015.3
20220630120322 72 190 0.0 0.0 0.00 0.00 0.00 72 1015.2
20220630115821 72 190 0.0 0.0 0.00 0.00 0.00 71 1015.3
20220630115320 72 190 0.0 0.0 0.00 0.00 0.00 70 1015.2
20220630114819 72 190 0.0 0.0 0.00 0.00 0.00 69 1015.2
20220630114318 72 190 0.0 0.0 0.00 0.00 0.00 69 1015.1
20220630113818 71 190 0.0 0.0 0.00 0.00 0.00 69 1015.2
20220630113316 71 190 0.0 0.0 0.00 0.00 0.00 69 1015.1
20220630112815 71 190 0.0 0.0 0.00 0.00 0.00 68 1015.2
20220630112314 72 190 0.0 0.0 0.00 0.00 0.00 67 1015.3
20220630111813 72 190 0.0 0.0 0.00 0.00 0.00 67 1015.2
20220630111312 72 190 0.0 0.0 0.00 0.00 0.00 67 1015.1
20220630110811 72 190 0.0 0.0 0.00 0.00 0.00 66 1015.4
20220630110310 73 190 0.0 0.0 0.00 0.00 0.00 64 1015.2
20220630105809 73 190 0.0 0.0 0.00 0.00 0.00 63 1015.2
20220630105307 73 190 0.0 0.0 0.00 0.00 0.00 63 1015.1
20220630104808 73 190 0.0 0.0 0.00 0.00 0.00 62 1015.0
20220630104307 74 190 0.0 0.0 0.00 0.00 0.00 61 1015.1
20220630103806 74 191 0.0 0.0 0.00 0.00 0.00 61 1015.4
20220630103305 74 198 0.0 0.0 0.00 0.00 0.00 60 1015.3
20220630102804 74 199 0.0 0.0 0.00 0.00 0.00 59 1015.3
20220630102303 75 189 0.0 0.0 0.00 0.00 0.00 59 1015.1
20220630101802 74 181 0.0 0.0 0.00 0.00 0.00 58 1015.2
20220630101301 74 191 0.0 1.0 0.00 0.00 0.00 58 1015.4
20220630100800 74 189 0.0 0.0 0.00 0.00 0.00 58 1015.1
20220630100259 75 166 0.0 0.0 0.00 0.00 0.00 57 1015.4
20220630095758 75 166 0.0 0.0 0.00 0.00 0.00 56 1015.4
20220630095256 75 166 0.0 0.0 0.00 0.00 0.00 56 1015.2
20220630094755 76 166 0.0 0.0 0.00 0.00 0.00 55 1015.2
20220630094254 76 166 0.0 0.0 0.00 0.00 0.00 54 1015.0
20220630093754 77 167 0.0 0.0 0.00 0.00 0.00 53 1015.3
20220630093254 77 167 0.0 0.0 0.00 0.00 0.00 52 1015.1
20220630092754 77 164 0.0 1.0 0.00 0.00 0.00 52 1015.1
20220630092252 77 170 0.0 1.0 0.00 0.00 0.00 51 1015.1
20220630091751 77 196 1.0 1.0 0.00 0.00 0.00 51 1014.9
20220630091250 77 179 1.0 1.0 0.00 0.00 0.00 50 1015.3
20220630090750 77 182 0.0 0.0 0.00 0.00 0.00 51 1015.1
20220630090249 78 177 1.0 1.0 0.00 0.00 0.00 50 1015.2
20220630085748 78 181 1.0 1.0 0.00 0.00 0.00 50 1015.2
20220630085246 78 190 0.0 1.0 0.00 0.00 0.00 49 1015.2
20220630084745 78 160 1.0 2.0 0.00 0.00 0.00 49 1015.1
20220630084243 78 182 0.0 1.0 0.00 0.00 0.00 49 1015.1
20220630083743 78 85 2.0 3.0 0.00 0.00 0.00 48 1014.9
20220630083242 78 102 2.0 3.0 0.00 0.00 0.00 48 1015.3
20220630082741 78 170 0.0 1.0 0.00 0.00 0.00 48 1015.3
20220630082240 78 197 1.0 1.0 0.00 0.00 0.00 48 1015.3
20220630081739 78 180 1.0 1.0 0.00 0.00 0.00 47 1015.1
20220630081240 78 218 0.0 0.0 0.00 0.00 0.00 47 1015.2
20220630080738 78 155 1.0 1.0 0.00 0.00 0.00 47 1015.3
20220630080237 78 180 0.0 0.0 0.00 0.00 0.00 47 1015.5
20220630075736 78 189 1.0 1.0 0.00 0.00 0.00 46 1015.4
20220630075236 78 189 0.0 0.0 0.00 0.00 0.00 46 1015.3
20220630074735 79 162 0.0 1.0 0.00 0.00 0.00 45 1015.2
20220630074235 79 194 0.0 0.0 0.00 0.00 0.00 44 1015.5
20220630073734 79 163 1.0 1.0 0.00 0.00 0.00 44 1015.6
20220630073233 79 166 0.0 0.0 0.00 0.00 0.00 44 1015.3
20220630072731 79 173 1.0 1.0 0.00 0.00 0.00 44 1015.5
20220630072229 79 159 0.0 1.0 0.00 0.00 0.00 43 1015.4
20220630071728 80 182 0.0 0.0 0.00 0.00 0.00 43 1015.5
20220630071227 80 95 3.0 3.0 0.00 0.00 0.00 42 1015.5
20220630070726 80 156 1.0 2.0 0.00 0.00 0.00 42 1015.4
20220630070225 80 133 1.0 1.0 0.00 0.00 0.00 41 1015.5
20220630065724 80 184 1.0 1.0 0.00 0.00 0.00 41 1015.7
20220630065222 80 128 1.0 1.0 0.00 0.00 0.00 41 1015.6
20220630064721 80 142 1.0 1.0 0.00 0.00 0.00 41 1015.9
20220630064221 80 128 2.0 3.0 0.00 0.00 0.00 41 1015.8
20220630063719 80 146 1.0 1.0 0.00 0.00 0.00 41 1015.5
20220630063219 80 194 0.0 0.0 0.00 0.00 0.00 40 1015.9
20220630062717 80 207 0.0 0.0 0.00 0.00 0.00 40 1015.9
20220630062216 81 187 0.0 1.0 0.00 0.00 0.00 39 1015.9
20220630061714 81 107 1.0 3.0 0.00 0.00 0.00 39 1015.9
20220630061214 81 155 1.0 1.0 0.00 0.00 0.00 39 1015.9
20220630060712 81 126 2.0 2.0 0.00 0.00 0.00 38 1015.9
20220630060210 81 164 1.0 2.0 0.00 0.00 0.00 38 1016.1
20220630055709 81 108 2.0 3.0 0.00 0.00 0.00 37 1016.2
20220630055208 81 209 2.0 2.0 0.00 0.00 0.00 37 1016.3
20220630054706 81 169 1.0 1.0 0.00 0.00 0.00 37 1016.1
20220630054206 81 171 3.0 5.0 0.00 0.00 0.00 37 1016.1